Time;durP1;ratioP1;P1;durP2;ratioP2;P2;SDS_P1;SDS_P2;PMS_P1;PMS_P2;Temp;Humidity;BMP_temperature;BMP_pressure;BME280_temperature;BME280_humidity;BME280_pressure;Samples;Min_cycle;Max_cycle;Signal;HPM_P1;HPM_P2
2021/12/17 00:00:16;;;;;;;20.23;10.10;;;;;;;6.00;71.95;100567.44;5021761;28;20141;-65
2021/12/17 00:05:43;;;;;;;18.67;10.50;;;;;;;6.05;71.81;100565.31;5021723;28;20352;-66
2021/12/17 00:08:08;;;;;;;21.53;9.77;;;;;;;6.09;71.54;100562.34;5022914;28;20045;-65
2021/12/17 00:10:34;;;;;;;19.03;9.80;;;;;;;5.97;71.22;100559.78;5021821;28;20072;-65
2021/12/17 00:13:00;;;;;;;21.10;10.93;;;;;;;5.92;71.31;100548.78;5023180;28;20303;-67
2021/12/17 00:15:25;;;;;;;18.30;10.27;;;;;;;6.02;70.73;100555.88;5021445;28;20038;-66
2021/12/17 00:17:58;;;;;;;18.93;10.30;;;;;;;6.02;71.46;100549.75;5021205;28;20412;-64
2021/12/17 00:53:02;;;;;;;20.67;10.37;;;;;;;5.80;73.00;100568.03;5021119;28;20022;-66
2021/12/17 00:55:28;;;;;;;21.43;10.33;;;;;;;5.88;72.31;100563.06;5022799;28;20042;-66
2021/12/17 00:57:54;;;;;;;19.40;9.50;;;;;;;5.80;71.75;100545.22;5002316;28;20038;-64
2021/12/17 01:00:23;;;;;;;21.02;10.23;;;;;;;6.00;71.54;100557.78;5020410;28;20041;-66
2021/12/17 01:02:50;;;;;;;18.38;9.50;;;;;;;5.94;71.46;100566.09;5020912;28;20100;-64
2021/12/17 01:05:19;;;;;;;21.33;9.77;;;;;;;6.03;70.70;100554.91;5020534;28;20118;-66
2021/12/17 01:07:47;;;;;;;18.10;10.10;;;;;;;5.95;71.43;100545.91;5021695;28;20048;-66
2021/12/17 01:10:27;;;;;;;20.75;10.00;;;;;;;6.01;71.60;100551.56;5020798;28;20083;-64
2021/12/17 01:12:53;;;;;;;24.25;11.63;;;;;;;6.13;69.97;100549.81;5020539;28;20040;-66
2021/12/17 01:15:19;;;;;;;19.50;10.17;;;;;;;6.13;70.75;100546.34;5021320;28;20030;-67
2021/12/17 01:17:49;;;;;;;20.73;10.05;;;;;;;6.18;70.35;100533.69;5020624;28;20038;-64
2021/12/17 01:25:34;;;;;;;19.40;9.75;;;;;;;6.14;70.33;100551.50;5021448;28;20375;-65
2021/12/17 01:36:13;;;;;;;22.02;9.38;;;;;;;6.22;69.89;100540.41;5021424;28;20061;-64
2021/12/17 01:44:06;;;;;;;19.47;9.17;;;;;;;6.27;69.16;100538.28;5017451;28;20049;-65
2021/12/17 01:46:35;;;;;;;17.17;9.60;;;;;;;6.12;69.64;100540.25;5003234;28;20021;-66
2021/12/17 01:59:53;;;;;;;17.03;8.63;;;;;;;5.83;70.35;100523.97;5020577;28;20042;-66
2021/12/17 02:02:18;;;;;;;20.50;9.73;;;;;;;5.89;70.80;100527.94;5022265;28;20033;-66
2021/12/17 02:04:44;;;;;;;17.53;8.70;;;;;;;6.04;69.98;100535.56;5005137;28;20029;-65
2021/12/17 02:07:10;;;;;;;21.77;9.27;;;;;;;5.94;70.50;100533.72;5022546;28;20269;-67
2021/12/17 02:29:36;;;;;;;28.73;11.63;;;;;;;5.66;72.64;100500.72;5025703;28;20137;-66
2021/12/17 02:31:43;;;;;;;23.50;10.83;;;;;;;5.61;72.98;100497.59;5025371;28;20320;-66
2021/12/17 02:37:00;;;;;;;20.53;10.90;;;;;;;5.60;73.36;100493.28;4985313;28;20042;-64
2021/12/17 02:47:32;;;;;;;20.45;10.63;;;;;;;5.52;73.47;100499.09;5024661;28;20532;-66
2021/12/17 02:49:58;;;;;;;18.70;10.37;;;;;;;5.58;73.53;100503.06;5022264;28;20058;-64
2021/12/17 02:52:29;;;;;;;20.45;10.07;;;;;;;5.58;73.12;100511.78;5022412;28;20034;-66
2021/12/17 02:54:57;;;;;;;22.03;9.70;;;;;;;5.46;73.13;100491.66;5006478;28;20350;-65
2021/12/17 02:57:25;;;;;;;15.90;8.70;;;;;;;5.52;73.20;100509.59;5022919;28;20068;-67
2021/12/17 02:59:53;;;;;;;22.47;9.63;;;;;;;5.60;71.97;100514.31;5021577;28;20045;-65
2021/12/17 03:02:23;;;;;;;19.03;9.10;;;;;;;5.63;72.29;100527.22;5021421;28;20058;-66
2021/12/17 03:04:49;;;;;;;17.08;9.07;;;;;;;5.60;71.76;100525.66;5022094;28;20040;-65
2021/12/17 03:07:14;;;;;;;16.35;9.35;;;;;;;5.58;72.41;100518.81;5021353;28;20068;-65
2021/12/17 03:10:03;;;;;;;18.73;9.00;;;;;;;5.49;72.35;100520.34;5024328;28;20034;-66
2021/12/17 03:12:37;;;;;;;19.03;9.47;;;;;;;5.53;72.41;100510.44;5023118;28;20066;-65
2021/12/17 03:25:49;;;;;;;26.57;15.33;;;;;;;5.60;71.84;100504.63;5023163;28;20052;-67
2021/12/17 03:28:14;;;;;;;26.67;12.90;;;;;;;5.61;71.84;100508.09;5021267;28;20097;-67
2021/12/17 03:30:40;;;;;;;21.57;12.47;;;;;;;5.65;71.30;100502.50;5021951;28;20101;-66
2021/12/17 03:33:06;;;;;;;18.20;10.20;;;;;;;5.54;72.63;100507.69;5023389;28;20022;-65
2021/12/17 03:35:31;;;;;;;20.65;10.55;;;;;;;5.53;72.64;100516.53;5022580;28;20033;-66
2021/12/17 03:37:57;;;;;;;22.40;11.82;;;;;;;5.63;72.05;100512.28;5020783;28;20029;-66
2021/12/17 03:40:22;;;;;;;19.73;10.43;;;;;;;5.64;72.46;100519.22;5021355;28;20041;-65
2021/12/17 03:42:50;;;;;;;18.67;9.73;;;;;;;5.73;72.27;100508.03;5020691;28;20030;-64
2021/12/17 03:45:18;;;;;;;19.58;10.80;;;;;;;5.76;72.33;100510.44;5020509;28;20030;-67
2021/12/17 03:47:43;;;;;;;23.37;12.33;;;;;;;5.77;72.35;100506.03;5021563;28;20041;-67
2021/12/17 03:50:10;;;;;;;18.47;9.10;;;;;;;5.84;72.06;100503.78;5022349;28;20034;-67
2021/12/17 03:52:35;;;;;;;26.30;12.98;;;;;;;5.83;72.12;100504.72;5022962;28;20042;-64
2021/12/17 03:55:01;;;;;;;23.60;12.40;;;;;;;5.93;72.03;100495.25;5022488;28;20053;-66
2021/12/17 03:57:26;;;;;;;17.80;10.27;;;;;;;5.87;71.34;100493.03;5023295;28;20042;-64
2021/12/17 03:59:52;;;;;;;19.20;9.47;;;;;;;5.96;71.71;100497.66;5023084;28;20351;-65
2021/12/17 04:02:18;;;;;;;17.25;10.00;;;;;;;5.71;71.81;100504.69;5023860;28;20311;-64
2021/12/17 04:04:44;;;;;;;15.88;8.90;;;;;;;5.72;72.40;100493.22;5021481;28;20065;-67
2021/12/17 04:07:10;;;;;;;16.23;8.70;;;;;;;5.58;72.32;100477.63;5021820;28;20311;-67
2021/12/17 04:09:35;;;;;;;15.00;8.90;;;;;;;5.75;71.98;100497.41;5022850;28;20065;-67
2021/12/17 04:12:03;;;;;;;16.80;9.30;;;;;;;5.90;71.98;100496.31;5022143;28;20029;-66
2021/12/17 04:14:43;;;;;;;22.10;9.30;;;;;;;6.04;71.07;100492.66;5020967;28;20335;-64
2021/12/17 04:17:09;;;;;;;15.55;8.25;;;;;;;5.80;71.90;100482.16;5019762;28;20029;-64
2021/12/17 04:19:35;;;;;;;17.05;8.98;;;;;;;5.71;72.76;100459.19;5003295;28;20228;-67
2021/12/17 04:22:01;;;;;;;21.85;9.48;;;;;;;5.92;72.51;100483.91;5019800;28;20089;-66
2021/12/17 04:24:27;;;;;;;15.03;8.00;;;;;;;6.06;71.80;100488.13;5017410;28;20053;-67
2021/12/17 04:26:53;;;;;;;15.82;8.15;;;;;;;6.16;70.97;100483.00;5019817;28;20105;-65
2021/12/17 04:29:20;;;;;;;15.67;8.80;;;;;;;6.12;71.62;100485.03;5020438;28;20370;-67
2021/12/17 04:31:51;;;;;;;16.63;9.07;;;;;;;6.03;71.86;100488.34;5019492;28;20025;-67
2021/12/17 04:34:18;;;;;;;20.17;10.37;;;;;;;6.00;71.78;100494.69;5019289;28;20042;-65
2021/12/17 04:36:45;;;;;;;17.88;9.02;;;;;;;6.08;71.62;100480.94;5019381;28;20045;-64
2021/12/17 04:39:10;;;;;;;19.47;8.23;;;;;;;6.22;70.19;100496.53;5022360;28;20073;-64
2021/12/17 04:44:14;;;;;;;20.67;9.13;;;;;;;6.10;70.87;100486.94;5020378;28;20026;-64
2021/12/17 04:59:58;;;;;;;17.55;9.25;;;;;;;6.07;71.15;100474.84;5022502;28;20233;-64
2021/12/17 05:02:24;;;;;;;17.00;9.07;;;;;;;5.90;71.14;100469.19;5019099;28;20014;-64
2021/12/17 05:04:49;;;;;;;16.38;8.77;;;;;;;6.01;71.49;100469.22;5020579;28;20400;-67
2021/12/17 05:07:16;;;;;;;17.58;9.02;;;;;;;6.00;71.51;100478.91;5021431;28;20025;-66
2021/12/17 05:20:23;;;;;;;16.65;8.60;;;;;;;6.11;70.92;100474.63;5020540;28;20347;-65
2021/12/17 05:22:55;;;;;;;20.02;9.95;;;;;;;6.14;71.43;100475.22;5016445;28;20053;-66
2021/12/17 05:25:21;;;;;;;14.02;8.10;;;;;;;6.05;71.80;100468.88;5018930;28;20033;-65
2021/12/17 05:27:47;;;;;;;15.85;8.55;;;;;;;6.07;71.23;100456.44;5018558;28;20092;-64
2021/12/17 05:30:12;;;;;;;14.00;8.40;;;;;;;6.25;70.00;100453.41;5019485;28;20042;-66
2021/12/17 05:32:38;;;;;;;16.20;8.48;;;;;;;6.11;70.75;100453.59;5018851;28;20307;-65
2021/12/17 05:35:04;;;;;;;15.73;8.10;;;;;;;6.14;71.06;100454.19;5019664;28;20285;-66
2021/12/17 05:37:29;;;;;;;14.50;8.02;;;;;;;6.10;70.34;100452.75;5019639;28;20037;-64
2021/12/17 05:39:55;;;;;;;15.67;8.47;;;;;;;6.13;70.25;100449.88;5021114;28;20052;-65
2021/12/17 05:42:20;;;;;;;16.02;7.43;;;;;;;6.16;70.47;100439.13;5020357;28;20030;-64
2021/12/17 05:44:51;;;;;;;14.60;7.60;;;;;;;6.14;70.99;100430.53;5019226;28;20034;-64
2021/12/17 05:47:17;;;;;;;16.40;8.95;;;;;;;6.22;70.90;100422.06;5019208;28;20026;-67
2021/12/17 05:49:42;;;;;;;15.23;8.20;;;;;;;6.19;70.51;100433.66;5018487;28;20350;-64
2021/12/17 05:52:08;;;;;;;15.32;8.18;;;;;;;6.13;70.27;100423.59;5020528;28;20219;-66
2021/12/17 05:54:33;;;;;;;17.20;8.32;;;;;;;6.20;70.67;100435.31;5020993;28;20044;-67
2021/12/17 05:56:59;;;;;;;19.33;7.90;;;;;;;6.26;69.77;100437.50;5019660;28;20068;-66
2021/12/17 05:59:32;;;;;;;14.15;6.95;;;;;;;6.25;69.45;100435.00;5020507;28;20065;-64
2021/12/17 06:01:57;;;;;;;17.65;8.63;;;;;;;6.20;69.18;100445.84;5020043;28;20319;-64
2021/12/17 06:04:22;;;;;;;18.23;9.73;;;;;;;6.27;68.96;100449.72;5020878;28;20037;-65
2021/12/17 06:06:49;;;;;;;15.10;8.95;;;;;;;6.27;68.51;100449.72;5019847;28;20088;-65
2021/12/17 06:09:14;;;;;;;13.35;7.35;;;;;;;6.12;69.36;100437.69;5020858;28;20194;-64
2021/12/17 06:11:40;;;;;;;20.38;8.50;;;;;;;6.17;69.50;100437.34;5021220;28;20034;-66
2021/12/17 06:14:06;;;;;;;12.90;7.28;;;;;;;6.18;68.50;100433.75;5017991;28;20266;-64
2021/12/17 06:16:33;;;;;;;16.90;7.90;;;;;;;6.27;68.85;100420.78;5019031;28;20034;-66
2021/12/17 06:19:00;;;;;;;15.57;8.73;;;;;;;6.40;68.83;100416.25;5019707;28;20104;-65
2021/12/17 06:21:26;;;;;;;14.88;8.13;;;;;;;6.27;68.48;100418.16;5020580;28;20026;-64
2021/12/17 06:23:51;;;;;;;18.77;9.88;;;;;;;6.37;68.56;100413.00;5018634;28;20048;-66
2021/12/17 06:26:17;;;;;;;18.50;8.15;;;;;;;6.44;68.97;100416.84;5018600;28;20125;-64
2021/12/17 06:28:42;;;;;;;13.05;7.47;;;;;;;6.28;68.92;100406.66;5001437;28;20213;-66
2021/12/17 06:31:08;;;;;;;16.17;7.85;;;;;;;6.34;68.73;100403.56;5019090;28;20232;-64
2021/12/17 06:33:33;;;;;;;15.55;7.65;;;;;;;6.25;68.96;100412.16;5018034;28;20037;-66
2021/12/17 06:35:59;;;;;;;15.07;7.75;;;;;;;6.23;69.09;100415.84;5018999;28;20300;-64
2021/12/17 06:38:24;;;;;;;13.65;7.38;;;;;;;6.22;68.71;100420.25;5019211;28;20056;-64
2021/12/17 06:40:53;;;;;;;15.27;8.00;;;;;;;6.37;69.29;100420.91;5020238;28;20251;-64
2021/12/17 06:43:21;;;;;;;15.15;7.28;;;;;;;6.33;69.60;100422.09;5020155;28;20030;-66
2021/12/17 06:45:59;;;;;;;13.23;7.43;;;;;;;6.40;69.36;100425.94;5018026;28;20108;-64
2021/12/17 06:48:28;;;;;;;15.73;7.90;;;;;;;6.44;68.93;100432.63;5019228;28;20030;-65
2021/12/17 06:57:16;;;;;;;17.35;8.50;;;;;;;6.48;69.53;100449.00;5020691;28;20037;-65
2021/12/17 06:59:56;;;;;;;20.33;10.05;;;;;;;6.51;69.56;100446.13;5020728;28;20034;-66
2021/12/17 07:18:54;;;;;;;13.65;7.88;;;;;;;6.58;70.26;100463.97;5022928;28;20041;-67
2021/12/17 07:34:06;;;;;;;27.83;11.90;;;;;;;6.90;70.08;100444.81;5023526;28;20033;-66
2021/12/17 07:36:44;;;;;;;19.45;9.13;;;;;;;7.11;69.65;100452.78;5023785;28;20388;-67
2021/12/17 07:39:10;;;;;;;18.65;9.00;;;;;;;7.06;70.95;100453.16;5023252;28;20081;-67
2021/12/17 07:41:35;;;;;;;16.50;8.23;;;;;;;6.96;71.11;100453.06;5023440;28;20033;-64
2021/12/17 07:44:02;;;;;;;16.67;8.77;;;;;;;6.79;72.00;100456.19;5023440;28;20029;-65
2021/12/17 07:46:28;;;;;;;18.67;8.23;;;;;;;6.92;71.67;100445.53;5023200;28;20394;-64
2021/12/17 07:48:54;;;;;;;18.08;8.75;;;;;;;7.01;71.55;100436.91;5024001;28;20038;-66
2021/12/17 07:51:22;;;;;;;20.95;8.73;;;;;;;6.85;72.35;100433.81;5024605;28;20030;-65
2021/12/17 07:53:48;;;;;;;17.67;9.40;;;;;;;6.94;71.46;100439.19;5023887;28;20033;-65
2021/12/17 07:56:18;;;;;;;18.33;8.95;;;;;;;6.76;72.37;100432.75;5024285;28;20034;-65
2021/12/17 07:58:44;;;;;;;23.83;8.68;;;;;;;6.92;72.47;100435.84;5024611;28;20022;-65
2021/12/17 08:01:11;;;;;;;25.60;14.27;;;;;;;7.14;71.92;100436.75;5023865;28;20328;-65
2021/12/17 08:03:40;;;;;;;18.98;10.50;;;;;;;7.26;71.71;100428.69;5024344;28;20034;-66
2021/12/17 08:06:06;;;;;;;16.30;7.68;;;;;;;7.41;71.66;100417.91;5024557;28;20080;-66
2021/12/17 08:08:32;;;;;;;17.38;7.78;;;;;;;7.53;70.90;100423.00;5023633;28;20061;-66
2021/12/17 08:10:58;;;;;;;13.60;6.45;;;;;;;7.54;69.96;100419.41;5023790;28;20034;-65
2021/12/17 08:13:27;;;;;;;16.35;7.18;;;;;;;7.63;69.71;100402.00;5023739;28;20022;-66
2021/12/17 08:18:52;;;;;;;12.18;6.00;;;;;;;7.85;69.36;100407.16;5023828;28;20243;-65
2021/12/17 08:32:08;;;;;;;13.35;6.95;;;;;;;8.27;67.30;100386.03;5023672;28;20033;-65
2021/12/17 08:34:34;;;;;;;8.07;4.35;;;;;;;8.28;67.59;100392.97;5023541;28;20037;-66
2021/12/17 08:37:00;;;;;;;7.05;4.22;;;;;;;8.25;67.37;100396.69;5023093;28;20316;-66
2021/12/17 08:39:28;;;;;;;5.90;3.30;;;;;;;8.30;68.01;100397.16;5023382;28;20030;-65
2021/12/17 08:41:55;;;;;;;8.05;4.28;;;;;;;8.39;68.23;100398.22;5023291;28;20252;-66
2021/12/17 08:44:21;;;;;;;6.45;3.58;;;;;;;8.15;68.38;100402.91;5023631;28;20100;-64
2021/12/17 08:46:47;;;;;;;5.28;3.00;;;;;;;8.22;67.92;100399.59;5023352;28;20072;-66
2021/12/17 08:49:13;;;;;;;6.93;3.97;;;;;;;8.25;68.29;100386.16;5023514;28;20057;-66
2021/12/17 08:51:41;;;;;;;8.85;3.88;;;;;;;8.28;68.13;100409.63;5023233;28;20024;-67
2021/12/17 08:54:06;;;;;;;7.22;3.63;;;;;;;8.16;67.99;100399.28;5023130;28;20053;-67
2021/12/17 08:56:45;;;;;;;13.02;4.40;;;;;;;8.25;68.05;100401.16;5023277;28;20048;-66
2021/12/17 08:59:10;;;;;;;10.05;4.00;;;;;;;8.27;68.64;100391.28;5023253;28;20053;-66
2021/12/17 09:01:35;;;;;;;8.23;4.50;;;;;;;8.19;67.80;100381.41;5022998;28;20028;-65
2021/12/17 09:04:02;;;;;;;7.97;4.63;;;;;;;8.27;68.00;100384.22;5022789;28;20030;-66
2021/12/17 09:06:28;;;;;;;7.88;3.90;;;;;;;8.39;68.24;100382.38;5023103;28;20026;-67
2021/12/17 09:08:58;;;;;;;11.02;4.72;;;;;;;8.52;67.58;100372.44;5022947;28;20097;-66
2021/12/17 09:11:26;;;;;;;7.85;3.83;;;;;;;8.33;68.09;100356.53;5022833;28;20026;-67
2021/12/17 09:13:53;;;;;;;5.72;3.28;;;;;;;8.16;67.95;100357.91;5022784;28;20026;-67
2021/12/17 09:16:20;;;;;;;8.68;4.13;;;;;;;8.23;68.87;100360.88;5022667;28;20036;-66
2021/12/17 09:18:48;;;;;;;8.98;4.13;;;;;;;8.25;67.98;100353.66;5022765;28;20096;-65
2021/12/17 09:21:14;;;;;;;12.85;3.92;;;;;;;8.30;68.78;100336.47;5022534;28;20362;-66
2021/12/17 09:23:40;;;;;;;11.48;4.20;;;;;;;8.35;68.71;100330.00;5022799;28;20262;-67
2021/12/17 09:26:05;;;;;;;6.88;3.70;;;;;;;8.41;69.30;100332.94;5022973;28;20081;-66
2021/12/17 09:28:31;;;;;;;10.55;4.22;;;;;;;8.35;69.44;100330.84;5019605;28;20084;-65
2021/12/17 09:30:58;;;;;;;9.75;4.40;;;;;;;8.62;69.44;100325.78;5019057;28;20064;-66
2021/12/17 09:33:25;;;;;;;8.77;4.53;;;;;;;8.60;68.95;100293.41;5018596;28;20040;-67
2021/12/17 09:35:51;;;;;;;9.20;4.78;;;;;;;8.78;68.81;100319.16;5019194;28;20336;-64
2021/12/17 09:38:17;;;;;;;6.28;3.63;;;;;;;8.83;68.07;100316.94;5020446;28;20077;-65
2021/12/17 09:40:42;;;;;;;6.32;3.50;;;;;;;8.72;68.49;100309.13;5021267;28;20040;-66
2021/12/17 09:43:10;;;;;;;10.93;5.40;;;;;;;8.74;69.30;100307.19;5018783;28;20071;-67
2021/12/17 09:45:36;;;;;;;7.82;3.75;;;;;;;8.78;68.38;100295.38;5018926;28;20038;-66
2021/12/17 09:48:02;;;;;;;6.80;4.03;;;;;;;8.66;69.07;100299.13;5017461;28;20083;-67
2021/12/17 09:50:28;;;;;;;5.35;3.60;;;;;;;8.66;69.40;100292.03;5019034;28;20041;-67
2021/12/17 09:52:53;;;;;;;8.98;4.85;;;;;;;8.72;70.23;100283.56;5018801;28;20048;-67
2021/12/17 09:55:20;;;;;;;9.60;4.25;;;;;;;8.77;70.01;100283.16;5017626;28;20232;-67
2021/12/17 09:57:45;;;;;;;10.18;5.63;;;;;;;8.88;69.70;100273.28;5019057;28;20140;-63
2021/12/17 10:00:13;;;;;;;13.15;6.07;;;;;;;8.76;70.44;100282.31;5018775;28;20362;-64
2021/12/17 10:02:41;;;;;;;15.27;6.13;;;;;;;8.78;70.42;100282.19;5018913;28;20048;-67
2021/12/17 10:05:06;;;;;;;7.93;4.40;;;;;;;8.74;71.38;100280.78;5022035;28;20026;-67
2021/12/17 10:07:33;;;;;;;6.20;3.88;;;;;;;8.62;70.81;100274.78;5022121;28;20053;-66
2021/12/17 10:10:02;;;;;;;5.85;3.53;;;;;;;8.69;70.82;100256.59;5022037;28;20137;-66
2021/12/17 10:12:32;;;;;;;8.43;4.25;;;;;;;8.70;71.41;100250.34;5004756;28;20030;-67
2021/12/17 10:15:07;;;;;;;7.50;4.40;;;;;;;8.72;71.20;100243.97;5021978;28;20050;-65
2021/12/17 10:17:35;;;;;;;7.18;3.80;;;;;;;8.68;71.01;100244.38;5022099;28;20046;-65
2021/12/17 10:20:01;;;;;;;5.10;3.20;;;;;;;8.60;70.37;100250.34;5022341;28;20239;-66
2021/12/17 10:22:29;;;;;;;6.80;3.63;;;;;;;8.54;71.59;100241.16;5022474;28;20061;-66
2021/12/17 10:25:02;;;;;;;8.65;4.07;;;;;;;8.54;71.55;100245.59;5022078;28;20034;-67
2021/12/17 10:27:31;;;;;;;7.93;4.07;;;;;;;8.55;71.76;100229.63;5004700;28;20026;-67
2021/12/17 10:29:58;;;;;;;12.25;6.13;;;;;;;8.57;72.16;100224.22;5022098;28;20034;-66
2021/12/17 10:32:26;;;;;;;12.30;5.38;;;;;;;8.68;72.28;100226.72;5021940;28;20029;-67
2021/12/17 10:35:06;;;;;;;10.25;5.55;;;;;;;8.75;71.92;100214.63;5025729;28;20255;-66
2021/12/17 10:37:43;;;;;;;14.25;6.53;;;;;;;8.70;71.76;100198.38;5025776;28;20032;-65
2021/12/17 10:40:22;;;;;;;10.23;5.88;;;;;;;8.95;71.78;100205.75;5025394;28;20300;-66
2021/12/17 10:43:14;;;;;;;7.30;4.32;;;;;;;8.93;71.16;100194.47;5025550;28;20040;-66
2021/12/17 10:45:43;;;;;;;8.35;4.45;;;;;;;8.98;70.81;100187.94;5025506;28;20104;-67
2021/12/17 10:49:17;;;;;;;6.28;4.07;;;;;;;8.88;71.01;100195.88;5025840;28;20080;-66
2021/12/17 10:51:56;;;;;;;7.25;4.25;;;;;;;8.89;71.40;100176.41;5016700;28;20286;-67
2021/12/17 10:54:06;;;;;;;12.57;4.68;;;;;;;8.90;71.13;100170.16;5010755;28;20069;-67
2021/12/17 10:56:34;;;;;;;;;;;;;;;8.86;70.22;100164.31;5022037;28;20048;-67
2021/12/17 10:59:05;;;;;;;9.88;5.60;;;;;;;8.93;70.60;100152.22;5022270;28;19917;-66
2021/12/17 11:01:36;;;;;;;7.85;4.78;;;;;;;9.03;70.62;100154.84;5023847;28;20220;-65
2021/12/17 11:04:07;;;;;;;10.95;4.95;;;;;;;9.06;70.42;100151.91;5021814;28;20052;-65
2021/12/17 11:06:51;;;;;;;5.95;3.70;;;;;;;9.06;69.80;100145.81;5021281;28;20022;-66
2021/12/17 11:10:00;;;;;;;6.60;3.28;;;;;;;9.11;69.79;100144.41;5019955;28;20030;-66
2021/12/17 11:12:36;;;;;;;6.05;4.25;;;;;;;9.25;70.41;100149.22;5022009;28;20049;-68
2021/12/17 11:15:22;;;;;;;6.40;4.40;;;;;;;9.21;70.35;100147.84;5020069;28;20050;-66
2021/12/17 11:18:03;;;;;;;6.40;4.07;;;;;;;9.24;70.06;100144.09;5023428;28;20244;-66
2021/12/17 11:20:30;;;;;;;5.63;3.67;;;;;;;9.25;68.79;100137.81;5022843;28;20049;-66
2021/12/17 11:23:03;;;;;;;6.00;4.05;;;;;;;9.25;69.20;100125.44;5022167;28;20042;-67
2021/12/17 11:25:28;;;;;;;5.93;3.33;;;;;;;9.24;68.24;100129.06;5023556;28;20294;-66
2021/12/17 11:27:54;;;;;;;7.00;4.00;;;;;;;9.09;68.73;100129.66;5022534;28;20287;-66
2021/12/17 11:30:25;;;;;;;6.90;4.03;;;;;;;9.23;69.25;100126.56;5021830;28;20042;-67
2021/12/17 11:32:51;;;;;;;6.15;3.95;;;;;;;9.19;69.53;100128.66;5023475;28;20044;-67
2021/12/17 11:35:20;;;;;;;7.97;4.43;;;;;;;9.16;68.86;100118.38;5023610;28;20041;-66
2021/12/17 11:37:49;;;;;;;10.05;4.90;;;;;;;9.21;69.05;100110.03;5020864;28;20061;-65
2021/12/17 11:40:23;;;;;;;7.90;4.28;;;;;;;9.14;69.43;100116.88;5020632;28;20196;-66
2021/12/17 11:43:14;;;;;;;6.93;4.22;;;;;;;9.36;68.45;100116.50;5022376;28;20211;-67
2021/12/17 11:45:42;;;;;;;9.32;4.15;;;;;;;9.45;67.79;100114.84;5022524;28;20080;-64
2021/12/17 11:48:17;;;;;;;11.38;4.95;;;;;;;9.39;67.33;100092.47;5022442;28;20377;-64
2021/12/17 11:50:43;;;;;;;10.00;4.15;;;;;;;9.29;67.32;100100.41;5023602;28;20026;-66
2021/12/17 11:53:40;;;;;;;12.10;4.85;;;;;;;9.42;67.42;100093.97;5022323;28;20026;-64
2021/12/17 11:56:05;;;;;;;10.15;4.72;;;;;;;9.50;66.57;100100.19;5023325;28;20359;-65
2021/12/17 11:58:49;;;;;;;8.20;4.35;;;;;;;9.45;67.41;100089.22;5021010;28;20036;-65
2021/12/17 12:01:57;;;;;;;7.40;4.40;;;;;;;9.64;67.44;100090.13;5021699;28;20038;-64
2021/12/17 12:04:34;;;;;;;6.75;3.65;;;;;;;9.57;66.18;100084.59;5020382;28;20056;-66
2021/12/17 12:07:10;;;;;;;6.80;3.97;;;;;;;9.64;66.81;100083.00;5022670;28;20076;-64
2021/12/17 12:10:11;;;;;;;10.23;4.30;;;;;;;9.54;66.34;100080.41;5021019;28;20025;-64
2021/12/17 12:12:46;;;;;;;14.10;5.88;;;;;;;9.49;67.38;100065.97;5016802;28;20049;-64
2021/12/17 12:15:31;;;;;;;16.05;6.63;;;;;;;9.43;66.73;100064.75;5022458;28;20269;-64
2021/12/17 12:17:57;;;;;;;10.27;5.53;;;;;;;9.40;67.05;100066.88;5021632;28;20088;-64
2021/12/17 12:23:27;;;;;;;25.52;9.23;;;;;;;9.44;68.58;100061.13;5021007;28;20022;-66
2021/12/17 12:26:04;;;;;;;26.33;10.00;;;;;;;9.33;67.78;100052.53;5019942;28;20038;-68
2021/12/17 12:28:48;;;;;;;11.35;3.95;;;;;;;9.36;67.79;100050.44;5018308;28;20022;-67
2021/12/17 12:31:19;;;;;;;5.37;3.57;;;;;;;9.40;67.57;100045.72;4985433;28;20038;-66
2021/12/17 12:34:11;;;;;;;7.97;4.20;;;;;;;9.46;68.30;100050.41;5012180;28;20049;-66
2021/12/17 12:36:54;;;;;;;14.10;5.65;;;;;;;9.52;67.82;100050.66;4997602;28;20280;-66
2021/12/17 12:39:24;;;;;;;14.32;4.95;;;;;;;9.59;67.62;100048.25;5023281;28;20041;-67
2021/12/17 12:42:04;;;;;;;17.77;4.57;;;;;;;9.49;66.47;100048.31;5021500;28;20038;-67
2021/12/17 12:44:41;;;;;;;11.52;4.97;;;;;;;9.42;67.37;100047.25;5023229;28;20232;-66
2021/12/17 12:47:34;;;;;;;22.17;5.20;;;;;;;9.46;68.05;100040.69;5005875;28;20105;-64
2021/12/17 12:50:10;;;;;;;7.53;4.00;;;;;;;9.53;68.30;100040.91;5023044;28;20209;-65
2021/12/17 12:52:49;;;;;;;9.23;4.57;;;;;;;9.35;68.43;100042.66;5023135;28;20026;-67
2021/12/17 12:55:37;;;;;;;7.20;5.07;;;;;;;9.33;68.82;100045.44;5005737;28;20029;-67
2021/12/17 12:58:27;;;;;;;11.13;4.82;;;;;;;9.17;68.98;100032.03;5022158;28;20061;-67
2021/12/17 13:00:58;;;;;;;10.65;4.05;;;;;;;9.14;68.95;100032.31;5014009;28;20041;-68
2021/12/17 13:03:26;;;;;;;7.38;4.35;;;;;;;9.10;69.15;100025.66;5023196;28;20060;-67
2021/12/17 13:05:53;;;;;;;9.25;4.15;;;;;;;9.12;69.04;100036.91;5022856;28;20219;-66
2021/12/17 13:08:20;;;;;;;7.50;4.20;;;;;;;9.06;69.20;100030.41;5023425;28;20058;-67
2021/12/17 13:10:55;;;;;;;7.40;4.25;;;;;;;8.98;68.78;100032.09;5022868;28;20666;-66
2021/12/17 13:26:47;;;;;;;7.05;4.25;;;;;;;8.80;70.11;100040.78;5022860;28;20049;-67
2021/12/17 13:29:17;;;;;;;8.30;4.05;;;;;;;8.84;70.17;100036.88;5022779;28;20141;-67
2021/12/17 13:31:43;;;;;;;8.07;4.32;;;;;;;8.96;70.03;100040.19;5004846;28;20049;-68
2021/12/17 13:34:19;;;;;;;10.07;4.55;;;;;;;8.70;70.48;100025.94;5022605;28;20093;-68
2021/12/17 13:37:03;;;;;;;8.18;4.53;;;;;;;8.83;70.32;100037.84;5022333;28;20037;-68
2021/12/17 13:39:32;;;;;;;5.80;3.78;;;;;;;8.75;70.46;100045.66;5022576;28;20038;-67
2021/12/17 13:41:59;;;;;;;6.95;4.65;;;;;;;8.83;70.54;100039.66;5022363;28;20030;-65
2021/12/17 13:44:26;;;;;;;6.55;3.85;;;;;;;8.71;70.52;100035.53;5021222;28;20031;-65
2021/12/17 13:47:05;;;;;;;8.50;4.72;;;;;;;8.70;71.10;100034.69;5006676;28;20046;-67
2021/12/17 13:49:30;;;;;;;7.60;4.32;;;;;;;8.71;70.98;100044.28;5003057;28;20110;-66
2021/12/17 13:51:56;;;;;;;11.82;5.53;;;;;;;8.85;70.85;100041.19;5001365;28;20208;-66
2021/12/17 13:54:22;;;;;;;5.88;3.95;;;;;;;8.67;70.78;100039.44;5002791;28;20105;-67
2021/12/17 13:57:01;;;;;;;6.00;4.03;;;;;;;8.71;70.98;100039.00;5002213;28;20046;-66
2021/12/17 13:59:34;;;;;;;7.55;4.80;;;;;;;8.79;70.75;100043.56;5002433;28;20046;-68
2021/12/17 14:02:08;;;;;;;7.00;4.63;;;;;;;8.80;70.74;100034.69;5002831;28;20061;-68
2021/12/17 14:04:33;;;;;;;12.63;5.28;;;;;;;8.80;70.73;100035.50;5002562;28;20045;-68
2021/12/17 14:07:10;;;;;;;5.88;4.30;;;;;;;8.79;70.97;100033.84;5002322;28;20207;-66
2021/12/17 14:09:36;;;;;;;6.97;5.25;;;;;;;8.86;70.91;100028.81;5006121;28;20030;-65
2021/12/17 14:12:10;;;;;;;7.63;4.50;;;;;;;8.78;71.32;100026.06;5006513;28;20030;-67
2021/12/17 14:14:36;;;;;;;8.65;5.80;;;;;;;8.91;71.13;100030.06;5006316;28;20058;-66
2021/12/17 14:17:04;;;;;;;7.28;4.60;;;;;;;8.79;71.69;100028.56;4988925;28;20030;-66
2021/12/17 14:19:45;;;;;;;8.15;5.28;;;;;;;8.89;71.76;100025.88;5006267;28;20038;-64
2021/12/17 14:22:19;;;;;;;8.93;5.63;;;;;;;8.77;71.81;100032.31;5005972;28;20304;-66
2021/12/17 14:24:45;;;;;;;10.20;5.30;;;;;;;8.69;71.94;100026.91;4989010;28;20030;-66
2021/12/17 14:27:10;;;;;;;10.80;4.97;;;;;;;8.70;71.98;100031.22;5006277;28;20359;-68
2021/12/17 14:29:38;;;;;;;9.10;5.18;;;;;;;8.70;72.42;100037.34;4988639;28;20026;-66
2021/12/17 14:32:04;;;;;;;5.57;3.72;;;;;;;8.29;73.46;100031.38;4988689;28;20141;-66
2021/12/17 14:34:29;;;;;;;7.82;4.22;;;;;;;8.39;72.83;100033.22;4988555;28;21200;-66
2021/12/17 14:37:02;;;;;;;5.25;3.00;;;;;;;8.34;73.24;100027.53;5005557;28;20201;-66
2021/12/17 14:39:38;;;;;;;5.93;3.20;;;;;;;8.34;72.99;100025.75;5006019;28;20057;-66
2021/12/17 14:42:06;;;;;;;7.07;2.72;;;;;;;8.28;73.37;100029.72;5014227;28;20088;-66
2021/12/17 14:44:45;;;;;;;6.03;2.95;;;;;;;8.25;73.71;100037.91;5005835;28;20054;-66
2021/12/17 15:01:15;;;;;;;6.25;3.55;;;;;;;8.25;76.79;100040.53;5005912;28;20029;-66
2021/12/17 15:03:41;;;;;;;9.23;3.83;;;;;;;8.30;78.46;100046.22;5005776;28;20276;-67
2021/12/17 15:06:12;;;;;;;5.07;2.97;;;;;;;8.07;79.39;100030.84;5005729;28;20471;-68
2021/12/17 15:08:38;;;;;;;9.30;3.90;;;;;;;8.01;81.10;100038.34;5005301;28;20236;-66
2021/12/17 15:11:11;;;;;;;7.32;3.15;;;;;;;8.02;80.78;100053.19;5005416;28;20038;-67